Time;durP1;ratioP1;P1;durP2;ratioP2;P2;SDS_P1;SDS_P2;PMS_P1;PMS_P2;Temp;Humidity;BMP_temperature;BMP_pressure;BME280_temperature;BME280_humidity;BME280_pressure;Samples;Min_cycle;Max_cycle;Signal;HPM_P1;HPM_P2
2022/01/24 00:00:25;;;;;;;9.88;5.93;;;5.20;99.90;;;;;;5065504;28;20152;-65
2022/01/24 00:02:50;;;;;;;12.02;6.32;;;5.20;99.90;;;;;;5047727;28;20080;-65
2022/01/24 00:05:18;;;;;;;11.18;6.78;;;5.20;99.90;;;;;;5031819;28;20041;-65
2022/01/24 00:07:44;;;;;;;10.60;6.20;;;5.20;99.90;;;;;;5046677;28;20079;-65
2022/01/24 00:10:15;;;;;;;12.82;7.13;;;5.20;99.90;;;;;;5049337;28;20080;-64
2022/01/24 00:15:47;;;;;;;14.02;7.53;;;5.10;99.90;;;;;;5047972;28;20045;-64
2022/01/24 00:18:12;;;;;;;11.57;7.53;;;5.20;99.90;;;;;;5048779;28;20061;-65
2022/01/24 00:28:51;;;;;;;13.20;7.45;;;5.10;99.90;;;;;;5049104;28;20098;-65
2022/01/24 00:31:16;;;;;;;15.48;7.22;;;5.10;99.90;;;;;;5046101;28;20376;-65
2022/01/24 00:33:42;;;;;;;13.70;8.35;;;5.10;99.90;;;;;;5047797;28;20094;-65
2022/01/24 00:36:07;;;;;;;17.38;8.43;;;5.10;99.90;;;;;;5044868;28;20468;-65
2022/01/24 00:38:33;;;;;;;15.50;8.10;;;5.10;99.90;;;;;;5045855;28;20079;-65
2022/01/24 00:40:59;;;;;;;13.77;7.75;;;5.10;99.90;;;;;;5043612;28;20041;-65
2022/01/24 00:43:47;;;;;;;15.18;8.25;;;5.10;99.90;;;;;;5061409;28;20064;-65
2022/01/24 00:46:29;;;;;;;14.48;8.20;;;5.10;99.90;;;;;;5048623;28;20041;-65
2022/01/24 00:56:50;;;;;;;15.05;8.38;;;5.10;99.90;;;;;;5043080;28;20091;-65
2022/01/24 00:59:16;;;;;;;16.13;8.48;;;5.10;99.90;;;;;;5047565;28;20124;-65
2022/01/24 01:01:41;;;;;;;13.25;8.05;;;5.10;99.90;;;;;;5064482;28;20128;-65
2022/01/24 01:04:07;;;;;;;16.60;8.95;;;5.10;99.90;;;;;;5046325;28;20453;-65
2022/01/24 01:06:32;;;;;;;15.30;8.48;;;5.10;99.90;;;;;;5062291;28;20476;-65
2022/01/24 01:19:56;;;;;;;17.65;9.52;;;5.10;99.90;;;;;;5048727;28;20048;-66
2022/01/24 01:22:21;;;;;;;20.35;10.15;;;5.00;99.90;;;;;;5048094;28;20135;-65
2022/01/24 01:24:52;;;;;;;19.75;10.45;;;5.00;99.90;;;;;;5045186;28;20040;-65
2022/01/24 01:27:23;;;;;;;;;;;5.00;99.90;;;;;;5057578;28;20104;-65
2022/01/24 01:33:05;;;;;;;17.73;9.85;;;5.10;99.90;;;;;;5047456;28;20064;-65
2022/01/24 01:40:41;;;;;;;19.23;9.10;;;5.10;99.90;;;;;;5048191;28;20045;-65
2022/01/24 01:56:31;;;;;;;21.48;11.07;;;5.00;99.90;;;;;;5046199;28;20045;-65
2022/01/24 01:58:57;;;;;;;22.98;11.25;;;5.00;99.90;;;;;;5046748;28;20105;-65
2022/01/24 02:01:23;;;;;;;19.90;10.90;;;4.90;99.90;;;;;;5029078;28;20152;-65
2022/01/24 02:03:50;;;;;;;18.38;9.95;;;5.00;99.90;;;;;;5046583;28;20251;-65
2022/01/24 02:06:16;;;;;;;20.55;10.98;;;5.00;99.90;;;;;;5061756;28;20121;-65
2022/01/24 02:08:42;;;;;;;19.08;9.90;;;5.00;99.90;;;;;;5045742;28;20173;-65
2022/01/24 02:11:11;;;;;;;19.98;9.80;;;4.90;99.90;;;;;;5063777;28;20061;-65
2022/01/24 02:13:36;;;;;;;16.88;9.60;;;5.00;99.90;;;;;;5061831;28;20056;-65
2022/01/24 02:18:41;;;;;;;17.42;9.65;;;5.00;99.90;;;;;;5044359;28;20044;-67
2022/01/24 02:21:26;;;;;;;17.90;9.90;;;5.00;99.90;;;;;;5048503;28;20045;-66
2022/01/24 02:23:52;;;;;;;15.18;9.27;;;4.90;99.90;;;;;;5046716;28;20033;-66
2022/01/24 02:26:21;;;;;;;16.40;9.07;;;5.00;99.90;;;;;;5040994;28;20311;-65
2022/01/24 02:28:57;;;;;;;15.52;9.40;;;4.90;99.90;;;;;;5047504;28;20041;-65
2022/01/24 02:34:17;;;;;;;17.42;9.85;;;4.90;99.90;;;;;;5045394;28;20048;-65
2022/01/24 02:36:43;;;;;;;20.67;10.32;;;5.00;99.90;;;;;;5046697;28;20037;-65
2022/01/24 02:50:06;;;;;;;20.42;10.27;;;4.90;99.90;;;;;;5045896;28;20049;-65
2022/01/24 02:52:32;;;;;;;16.85;9.38;;;4.90;99.90;;;;;;5045441;28;20048;-65
2022/01/24 02:54:57;;;;;;;17.80;9.85;;;4.90;99.90;;;;;;5043421;28;20037;-65
2022/01/24 02:57:23;;;;;;;20.10;11.00;;;4.90;99.90;;;;;;5046883;28;20116;-65
2022/01/24 02:59:48;;;;;;;17.20;9.48;;;4.90;99.90;;;;;;5045473;28;20106;-65
2022/01/24 03:02:14;;;;;;;20.42;10.23;;;4.90;99.90;;;;;;5050157;28;20102;-65
2022/01/24 03:04:39;;;;;;;19.95;10.57;;;4.90;99.90;;;;;;5049224;28;20053;-65
2022/01/24 03:07:05;;;;;;;18.40;10.02;;;4.90;99.90;;;;;;5048365;28;20118;-65
2022/01/24 03:09:32;;;;;;;19.88;10.73;;;4.90;99.90;;;;;;5051570;28;20044;-68
2022/01/24 03:12:12;;;;;;;19.48;9.98;;;4.90;99.90;;;;;;5049884;28;20048;-65
2022/01/24 03:14:37;;;;;;;19.60;11.05;;;4.90;99.90;;;;;;5032084;28;20167;-65
2022/01/24 03:17:05;;;;;;;20.98;11.82;;;4.90;99.90;;;;;;5050986;28;20155;-65
2022/01/24 03:19:31;;;;;;;22.10;10.77;;;4.90;99.90;;;;;;5048274;28;20094;-65
2022/01/24 03:21:56;;;;;;;21.75;11.90;;;4.90;99.90;;;;;;5052176;28;20342;-65
2022/01/24 03:24:22;;;;;;;21.25;11.68;;;4.90;99.90;;;;;;5049256;28;20032;-65
2022/01/24 03:26:48;;;;;;;20.08;10.65;;;4.90;99.90;;;;;;5050369;28;20041;-66
2022/01/24 03:29:14;;;;;;;20.45;10.63;;;4.90;99.90;;;;;;5049790;28;20032;-65
2022/01/24 03:31:42;;;;;;;17.77;10.40;;;4.80;99.90;;;;;;5032272;28;20048;-65
2022/01/24 03:34:08;;;;;;;20.73;11.35;;;4.90;99.90;;;;;;5050983;28;20480;-65
2022/01/24 03:36:34;;;;;;;20.20;11.15;;;4.80;99.90;;;;;;5046874;28;20037;-65
2022/01/24 03:38:59;;;;;;;23.13;11.52;;;4.90;99.90;;;;;;5051241;28;20044;-65
2022/01/24 03:41:25;;;;;;;21.40;11.32;;;4.90;99.90;;;;;;5049791;28;20036;-65
2022/01/24 03:43:51;;;;;;;22.88;11.75;;;4.80;99.90;;;;;;5049675;28;20041;-65
2022/01/24 03:48:51;;;;;;;21.50;11.85;;;4.80;99.90;;;;;;5047955;28;20040;-65
2022/01/24 03:51:18;;;;;;;23.35;11.45;;;4.80;99.90;;;;;;5066507;28;20037;-65
2022/01/24 03:53:45;;;;;;;22.98;11.80;;;4.80;99.90;;;;;;5047976;28;20037;-65
2022/01/24 03:56:11;;;;;;;23.95;12.00;;;4.80;99.90;;;;;;5046331;28;20503;-65
2022/01/24 03:58:37;;;;;;;22.98;11.85;;;4.80;99.90;;;;;;5048327;28;20043;-65
2022/01/24 04:01:05;;;;;;;26.23;12.77;;;4.80;99.90;;;;;;5047488;28;20044;-65
2022/01/24 04:03:31;;;;;;;26.83;13.15;;;4.80;99.90;;;;;;5047030;28;20122;-65
2022/01/24 04:05:57;;;;;;;22.88;11.70;;;4.80;99.90;;;;;;5047808;28;20425;-65
2022/01/24 04:08:22;;;;;;;25.35;13.35;;;4.80;99.90;;;;;;5061756;28;20130;-65
2022/01/24 04:10:52;;;;;;;25.80;12.27;;;4.80;99.90;;;;;;5045569;28;20081;-65
2022/01/24 04:21:27;;;;;;;24.38;12.43;;;4.70;99.90;;;;;;5048324;28;20128;-65
2022/01/24 04:24:19;;;;;;;25.25;13.00;;;4.70;99.90;;;;;;5048710;28;20076;-65
2022/01/24 04:26:44;;;;;;;23.85;12.43;;;4.70;99.90;;;;;;5048593;28;20037;-65
2022/01/24 04:29:09;;;;;;;25.05;11.93;;;4.80;99.90;;;;;;5048235;28;20045;-65
2022/01/24 04:31:35;;;;;;;24.90;13.38;;;4.70;99.90;;;;;;5048743;28;20311;-66
2022/01/24 04:34:02;;;;;;;23.33;11.63;;;4.80;99.90;;;;;;5031198;28;20045;-65
2022/01/24 04:36:27;;;;;;;26.15;12.93;;;4.80;99.90;;;;;;5048173;28;20128;-65
2022/01/24 04:38:53;;;;;;;25.20;12.80;;;4.70;99.90;;;;;;5048657;28;20472;-65
2022/01/24 04:41:24;;;;;;;24.70;13.18;;;4.70;99.90;;;;;;5048335;28;20426;-65
2022/01/24 04:51:36;;;;;;;25.17;12.55;;;4.70;99.90;;;;;;5040448;28;20124;-65
2022/01/24 04:56:35;;;;;;;24.73;12.48;;;4.70;99.90;;;;;;5049805;28;20045;-65
2022/01/24 04:59:00;;;;;;;23.70;12.30;;;4.70;99.90;;;;;;5047646;28;20044;-64
2022/01/24 05:01:26;;;;;;;23.20;12.02;;;4.70;99.90;;;;;;5046899;28;20041;-64
2022/01/24 05:03:52;;;;;;;23.05;11.77;;;4.70;99.90;;;;;;5043731;28;20354;-64
2022/01/24 05:06:18;;;;;;;25.55;12.93;;;4.70;99.90;;;;;;5047173;28;20041;-65
2022/01/24 05:08:44;;;;;;;20.80;11.50;;;4.70;99.90;;;;;;5046155;28;20029;-65
2022/01/24 05:11:13;;;;;;;21.27;10.90;;;4.70;99.90;;;;;;5046845;28;20122;-64
2022/01/24 05:23:26;;;;;;;27.17;12.45;;;4.70;99.90;;;;;;5046970;28;20052;-65
2022/01/24 05:24:38;;;;;;;21.55;10.93;;;4.70;99.90;;;;;;5048007;28;20052;-65
2022/01/24 05:27:05;;;;;;;22.05;11.07;;;4.70;99.90;;;;;;5047077;28;20453;-64
2022/01/24 05:29:30;;;;;;;22.08;12.05;;;4.70;99.90;;;;;;5064031;28;20080;-65
2022/01/24 05:31:56;;;;;;;22.65;11.85;;;4.70;99.90;;;;;;5047282;28;20179;-65
2022/01/24 05:34:22;;;;;;;24.55;12.35;;;4.80;99.90;;;;;;5045103;28;20037;-64
2022/01/24 05:36:48;;;;;;;24.38;11.73;;;4.70;99.90;;;;;;5047604;28;20063;-65
2022/01/24 05:39:14;;;;;;;21.98;10.73;;;4.70;99.90;;;;;;5046922;28;20135;-65
2022/01/24 05:41:40;;;;;;;19.90;10.30;;;4.70;99.90;;;;;;5031529;28;20086;-64
2022/01/24 05:44:06;;;;;;;23.42;11.48;;;4.70;99.90;;;;;;5046595;28;20062;-64
2022/01/24 05:46:32;;;;;;;22.15;10.93;;;4.80;99.90;;;;;;5047299;28;20048;-64
2022/01/24 05:48:57;;;;;;;18.60;10.35;;;4.70;99.90;;;;;;5047085;28;20044;-65
2022/01/24 05:51:24;;;;;;;23.73;11.68;;;4.70;99.90;;;;;;5046431;28;20048;-65
2022/01/24 05:53:50;;;;;;;24.17;11.98;;;4.70;99.90;;;;;;5047892;28;20064;-65
2022/01/24 05:56:16;;;;;;;21.58;11.35;;;4.70;99.90;;;;;;5048013;28;20410;-65
2022/01/24 05:58:42;;;;;;;21.38;11.18;;;4.70;99.90;;;;;;5049632;28;20067;-64
2022/01/24 06:01:07;;;;;;;21.70;11.23;;;4.70;99.90;;;;;;5050508;28;20086;-64
2022/01/24 06:03:33;;;;;;;22.27;11.18;;;4.70;99.90;;;;;;5045928;28;20048;-64
2022/01/24 06:05:59;;;;;;;20.55;10.93;;;4.70;99.90;;;;;;5042121;28;20056;-65
2022/01/24 06:08:24;;;;;;;23.15;12.15;;;4.70;99.90;;;;;;5045241;28;20085;-64
2022/01/24 06:10:50;;;;;;;23.20;11.90;;;4.70;99.90;;;;;;5046789;28;20341;-65
2022/01/24 06:13:16;;;;;;;24.17;11.73;;;4.70;99.90;;;;;;5046784;28;20088;-65
2022/01/24 06:15:42;;;;;;;23.23;11.85;;;4.60;99.90;;;;;;5046201;28;20132;-64
2022/01/24 06:18:08;;;;;;;20.15;10.88;;;4.60;99.90;;;;;;5048802;28;20060;-64
2022/01/24 06:20:34;;;;;;;23.23;12.38;;;4.70;99.90;;;;;;5061546;28;20389;-65
2022/01/24 06:23:00;;;;;;;23.60;11.65;;;4.70;99.90;;;;;;5041546;28;20041;-65
2022/01/24 06:25:25;;;;;;;20.20;10.48;;;4.70;99.90;;;;;;5047534;28;20048;-64
2022/01/24 06:27:51;;;;;;;21.50;10.95;;;4.70;99.90;;;;;;5047670;28;20128;-64
2022/01/24 06:30:17;;;;;;;22.23;10.60;;;4.70;99.90;;;;;;5040312;28;20064;-65
2022/01/24 06:32:43;;;;;;;22.77;11.18;;;4.70;99.90;;;;;;5047195;28;20048;-64
2022/01/24 06:35:11;;;;;;;19.23;10.23;;;4.60;99.90;;;;;;5046610;28;20024;-64
2022/01/24 06:37:38;;;;;;;18.80;9.52;;;4.60;99.90;;;;;;5046155;28;20044;-64
2022/01/24 06:40:06;;;;;;;21.58;11.20;;;4.60;99.90;;;;;;5062000;28;20059;-65
2022/01/24 06:42:31;;;;;;;20.42;10.27;;;4.60;99.90;;;;;;5063772;28;20040;-64
2022/01/24 06:44:57;;;;;;;18.55;10.35;;;4.60;99.90;;;;;;5045716;28;20465;-65
2022/01/24 06:47:23;;;;;;;18.65;10.52;;;4.60;99.90;;;;;;5047865;28;20191;-64
2022/01/24 06:49:49;;;;;;;20.20;11.07;;;4.60;99.90;;;;;;5046922;28;20036;-64
2022/01/24 06:52:15;;;;;;;20.10;10.75;;;4.60;99.90;;;;;;5045682;28;20060;-64
2022/01/24 06:54:42;;;;;;;19.75;11.10;;;4.60;99.90;;;;;;5048724;28;20105;-65
2022/01/24 06:57:11;;;;;;;19.40;10.30;;;4.60;99.90;;;;;;5045733;28;20048;-65
2022/01/24 06:59:37;;;;;;;20.67;10.80;;;4.60;99.90;;;;;;5047293;28;20441;-65
2022/01/24 07:02:03;;;;;;;22.17;11.10;;;4.60;99.90;;;;;;5047692;28;20079;-64
2022/01/24 07:04:29;;;;;;;21.40;11.30;;;4.60;99.90;;;;;;5028580;28;20519;-65
2022/01/24 07:06:54;;;;;;;23.00;11.73;;;4.60;99.90;;;;;;5046917;28;20080;-64
2022/01/24 07:09:20;;;;;;;22.40;11.90;;;4.60;99.90;;;;;;5018497;28;20044;-65
2022/01/24 07:11:46;;;;;;;22.13;11.68;;;4.60;99.90;;;;;;5042498;28;20070;-65
2022/01/24 07:14:13;;;;;;;20.95;12.30;;;4.60;99.90;;;;;;5040405;28;20041;-65
2022/01/24 07:19:28;;;;;;;23.02;11.40;;;4.60;99.90;;;;;;5042855;28;20041;-65
2022/01/24 07:21:54;;;;;;;20.27;10.25;;;4.60;99.90;;;;;;5038547;28;20160;-64
2022/01/24 07:24:20;;;;;;;21.52;10.82;;;4.60;99.90;;;;;;5035182;28;20700;-65
2022/01/24 07:26:46;;;;;;;21.20;11.00;;;4.60;99.90;;;;;;5041753;28;20041;-64
2022/01/24 07:29:11;;;;;;;23.50;11.60;;;4.60;99.90;;;;;;5054988;28;20864;-64
2022/01/24 07:31:37;;;;;;;26.23;11.75;;;4.60;99.90;;;;;;5036516;28;20422;-64
2022/01/24 07:34:02;;;;;;;24.20;13.00;;;4.60;99.90;;;;;;5031941;28;20076;-64
2022/01/24 07:36:28;;;;;;;26.67;12.73;;;4.60;99.90;;;;;;5035352;28;20740;-65
2022/01/24 07:38:54;;;;;;;26.77;13.80;;;4.60;99.90;;;;;;5056721;28;20119;-65
2022/01/24 07:41:25;;;;;;;29.60;14.23;;;4.60;99.90;;;;;;5040980;28;20103;-65
2022/01/24 07:43:51;;;;;;;30.70;14.23;;;4.60;99.90;;;;;;5039878;28;20038;-64
2022/01/24 07:46:17;;;;;;;32.10;14.85;;;4.60;99.90;;;;;;5035211;28;20630;-64
2022/01/24 07:48:43;;;;;;;36.30;17.00;;;4.50;99.90;;;;;;5038283;28;20044;-64
2022/01/24 07:51:09;;;;;;;34.47;15.88;;;4.60;99.90;;;;;;5032782;28;20049;-64
2022/01/24 07:53:35;;;;;;;36.30;16.60;;;4.60;99.90;;;;;;5034787;28;20167;-64
2022/01/24 07:56:00;;;;;;;38.97;17.58;;;4.60;99.90;;;;;;5034390;28;20482;-64
2022/01/24 07:58:28;;;;;;;37.88;17.45;;;4.60;99.90;;;;;;5034682;28;20136;-65
2022/01/24 08:00:53;;;;;;;39.97;18.13;;;4.60;99.90;;;;;;5043552;28;20076;-65
2022/01/24 08:03:19;;;;;;;40.40;18.73;;;4.60;99.90;;;;;;5048287;28;20772;-64
2022/01/24 08:05:45;;;;;;;39.05;18.15;;;4.60;99.90;;;;;;5050478;28;20650;-65
2022/01/24 08:08:10;;;;;;;45.60;20.45;;;4.70;99.90;;;;;;5048760;28;20123;-65
2022/01/24 08:10:36;;;;;;;46.72;20.10;;;4.60;99.90;;;;;;5049407;28;20049;-65
2022/01/24 08:13:02;;;;;;;47.25;20.33;;;4.70;99.90;;;;;;5066023;28;20103;-64
2022/01/24 08:15:28;;;;;;;48.42;20.35;;;4.70;99.90;;;;;;5050776;28;20330;-64
2022/01/24 08:17:54;;;;;;;51.47;22.40;;;4.70;99.90;;;;;;5050088;28;20047;-65
2022/01/24 08:20:21;;;;;;;51.88;22.15;;;4.70;99.90;;;;;;5049874;28;20460;-65
2022/01/24 08:22:47;;;;;;;55.78;23.08;;;4.70;99.90;;;;;;5048760;28;20098;-65
2022/01/24 08:25:13;;;;;;;54.55;24.33;;;4.70;99.90;;;;;;5050566;28;20060;-64
2022/01/24 08:27:39;;;;;;;55.90;23.00;;;4.70;99.90;;;;;;5035991;28;20056;-65
2022/01/24 08:30:09;;;;;;;52.50;23.08;;;4.80;99.90;;;;;;5032503;28;20049;-65
2022/01/24 08:32:34;;;;;;;58.35;24.13;;;4.80;99.90;;;;;;5044230;28;20114;-64
2022/01/24 08:35:00;;;;;;;58.92;24.60;;;4.80;99.90;;;;;;5047939;28;20033;-64
2022/01/24 08:37:26;;;;;;;55.08;22.48;;;4.80;99.90;;;;;;5046527;28;20511;-64
2022/01/24 08:39:51;;;;;;;56.67;24.48;;;4.80;99.90;;;;;;5047207;28;20037;-65
2022/01/24 08:42:29;;;;;;;54.50;22.90;;;4.80;99.90;;;;;;5031278;28;20052;-65
2022/01/24 08:47:23;;;;;;;58.60;25.05;;;4.80;99.90;;;;;;5046426;28;20048;-65
2022/01/24 08:49:49;;;;;;;65.28;26.70;;;4.90;99.90;;;;;;5050253;28;20124;-65
2022/01/24 08:52:14;;;;;;;60.08;25.95;;;4.90;99.90;;;;;;5049169;28;20191;-65
2022/01/24 08:54:40;;;;;;;59.58;26.05;;;4.90;99.90;;;;;;5048339;28;20077;-65
2022/01/24 08:57:07;;;;;;;60.45;26.23;;;4.90;99.90;;;;;;5029897;28;20472;-65
2022/01/24 08:59:33;;;;;;;67.70;28.10;;;4.90;99.90;;;;;;5049294;28;20353;-65
2022/01/24 09:02:00;;;;;;;71.07;29.02;;;4.90;99.90;;;;;;5048192;28;20033;-64
2022/01/24 09:04:25;;;;;;;69.80;29.08;;;5.00;99.90;;;;;;5030941;28;20076;-65
2022/01/24 09:06:52;;;;;;;68.88;27.75;;;5.00;99.90;;;;;;5045846;28;20052;-65
2022/01/24 09:09:19;;;;;;;66.97;28.13;;;5.00;99.90;;;;;;5031258;28;20465;-65
2022/01/24 09:11:45;;;;;;;71.30;29.02;;;5.00;99.90;;;;;;5041376;28;20060;-64
2022/01/24 09:14:10;;;;;;;71.22;31.02;;;5.00;99.90;;;;;;5065213;28;20064;-65
2022/01/24 09:16:36;;;;;;;72.05;31.35;;;5.10;99.90;;;;;;5045573;28;20210;-65
2022/01/24 09:19:04;;;;;;;68.68;29.60;;;5.00;99.90;;;;;;5047487;28;20041;-64
2022/01/24 09:21:34;;;;;;;78.43;31.40;;;5.10;99.90;;;;;;5047671;28;20045;-64
2022/01/24 09:24:00;;;;;;;71.93;31.13;;;5.10;99.90;;;;;;5047483;28;20077;-64
2022/01/24 09:26:26;;;;;;;78.93;32.22;;;5.10;99.90;;;;;;5047145;28;20048;-65
2022/01/24 09:28:52;;;;;;;79.82;32.97;;;5.10;99.90;;;;;;5048975;28;20065;-65
2022/01/24 09:31:17;;;;;;;79.55;34.03;;;5.10;99.90;;;;;;5049758;28;20184;-65
2022/01/24 09:33:43;;;;;;;71.70;31.02;;;5.10;99.90;;;;;;5045071;28;20041;-65
2022/01/24 09:36:09;;;;;;;76.18;32.03;;;5.20;99.90;;;;;;5030846;28;20540;-64
2022/01/24 09:38:36;;;;;;;81.03;34.08;;;5.20;99.90;;;;;;5045731;28;20120;-65
2022/01/24 09:41:07;;;;;;;84.97;36.13;;;5.20;99.90;;;;;;5049777;28;20534;-65
2022/01/24 09:43:33;;;;;;;83.78;35.75;;;5.20;99.90;;;;;;5046207;28;20128;-64
2022/01/24 09:45:59;;;;;;;80.38;36.25;;;5.20;99.90;;;;;;5045506;28;20136;-64
2022/01/24 09:48:26;;;;;;;85.18;36.42;;;5.20;99.90;;;;;;5047601;28;20041;-64
2022/01/24 09:50:53;;;;;;;90.68;37.25;;;5.20;99.90;;;;;;5049948;28;20045;-64
2022/01/24 09:53:20;;;;;;;84.50;34.33;;;5.30;99.90;;;;;;5045043;28;20045;-64
2022/01/24 09:55:46;;;;;;;78.80;34.42;;;5.30;99.90;;;;;;5047413;28;20041;-65
2022/01/24 09:58:11;;;;;;;83.13;34.88;;;5.20;99.90;;;;;;5030683;28;20429;-64
2022/01/24 10:00:37;;;;;;;81.72;34.58;;;5.20;99.90;;;;;;5044242;28;20478;-65
2022/01/24 10:03:03;;;;;;;82.70;35.13;;;5.20;99.90;;;;;;5047346;28;20384;-65
2022/01/24 10:05:35;;;;;;;81.82;35.55;;;5.30;99.90;;;;;;5048441;28;20037;-64
2022/01/24 10:08:06;;;;;;;85.55;35.75;;;5.30;99.90;;;;;;5046095;28;20752;-64
2022/01/24 10:10:51;;;;;;;82.65;35.80;;;5.30;99.90;;;;;;5046431;28;20057;-64
2022/01/24 10:16:36;;;;;;;81.90;35.28;;;5.30;99.90;;;;;;5047683;28;20053;-64
2022/01/24 10:19:15;;;;;;;80.10;34.53;;;5.30;99.90;;;;;;5063696;28;20598;-65
2022/01/24 10:21:45;;;;;;;75.25;33.40;;;5.30;99.90;;;;;;5043125;28;20032;-64
2022/01/24 10:24:32;;;;;;;77.88;34.75;;;5.40;99.90;;;;;;5048030;28;20144;-65
2022/01/24 10:27:13;;;;;;;77.93;33.55;;;5.40;99.90;;;;;;5044301;28;20037;-64
2022/01/24 10:29:49;;;;;;;75.55;33.67;;;5.40;99.90;;;;;;5045953;28;20036;-65
2022/01/24 10:32:33;;;;;;;83.60;34.38;;;5.40;99.90;;;;;;5038226;28;20044;-65
2022/01/24 10:35:26;;;;;;;78.25;33.03;;;5.40;99.90;;;;;;5047059;28;20126;-65
2022/01/24 10:38:18;;;;;;;79.35;34.67;;;5.40;99.90;;;;;;5045674;28;20116;-64
2022/01/24 10:43:20;;;;;;;79.50;34.65;;;5.40;99.90;;;;;;5046361;28;20041;-65
2022/01/24 10:45:47;;;;;;;79.68;35.63;;;5.40;99.90;;;;;;5047517;28;20083;-64
2022/01/24 10:48:13;;;;;;;80.53;35.78;;;5.50;99.90;;;;;;5044109;28;20075;-64
2022/01/24 10:50:39;;;;;;;82.68;34.95;;;5.50;99.90;;;;;;5048286;28;20128;-65
2022/01/24 10:53:14;;;;;;;81.43;35.10;;;5.50;99.90;;;;;;5043439;28;20116;-65
2022/01/24 10:55:41;;;;;;;80.88;33.28;;;5.50;99.90;;;;;;5046969;28;20112;-65
2022/01/24 10:58:13;;;;;;;81.18;33.40;;;5.50;99.90;;;;;;5043249;28;20049;-64
2022/01/24 11:00:41;;;;;;;81.40;35.13;;;5.50;99.90;;;;;;5047728;28;20155;-65
2022/01/24 11:03:14;;;;;;;78.65;33.53;;;5.50;99.90;;;;;;5042569;28;20131;-65
2022/01/24 11:05:41;;;;;;;84.53;33.70;;;5.50;99.90;;;;;;5046939;28;20120;-65
2022/01/24 11:08:12;;;;;;;81.38;35.88;;;5.50;99.90;;;;;;5045270;28;20053;-64
2022/01/24 11:10:43;;;;;;;78.00;32.85;;;5.60;99.90;;;;;;5047477;28;20157;-65
2022/01/24 11:13:10;;;;;;;77.55;34.47;;;5.50;99.90;;;;;;5044168;28;20099;-64
2022/01/24 11:15:44;;;;;;;80.82;35.42;;;5.50;99.90;;;;;;5047784;28;20037;-64
2022/01/24 11:18:14;;;;;;;77.70;33.30;;;5.60;99.90;;;;;;5044297;28;20080;-64
2022/01/24 11:20:44;;;;;;;84.50;36.08;;;5.60;99.90;;;;;;5038940;28;20041;-65
2022/01/24 11:23:10;;;;;;;78.93;34.20;;;5.60;99.90;;;;;;5048963;28;20048;-64
2022/01/24 11:25:42;;;;;;;77.78;33.72;;;5.60;99.90;;;;;;5045028;28;20057;-64
2022/01/24 11:28:08;;;;;;;77.65;34.80;;;5.60;99.90;;;;;;5035726;28;20056;-65
2022/01/24 11:30:37;;;;;;;82.82;36.05;;;5.60;99.90;;;;;;5043813;28;20033;-65
2022/01/24 11:33:08;;;;;;;78.50;33.70;;;5.60;99.90;;;;;;5048948;28;20039;-65
2022/01/24 11:35:38;;;;;;;81.05;33.55;;;5.50;99.90;;;;;;5068194;28;20052;-64
2022/01/24 11:38:24;;;;;;;76.82;32.67;;;5.50;99.90;;;;;;5041575;28;20560;-64
2022/01/24 11:40:53;;;;;;;78.60;34.35;;;5.50;99.90;;;;;;5072452;28;20044;-65
2022/01/24 11:43:34;;;;;;;79.00;34.78;;;5.60;99.90;;;;;;5033624;28;20149;-65
2022/01/24 11:46:08;;;;;;;76.30;34.38;;;5.50;99.90;;;;;;5042001;28;20060;-65
2022/01/24 11:48:36;;;;;;;80.28;34.55;;;5.50;99.90;;;;;;5057107;28;20045;-64
2022/01/24 11:51:11;;;;;;;80.05;33.50;;;5.50;99.90;;;;;;5039238;28;20045;-65
2022/01/24 11:53:42;;;;;;;76.47;34.13;;;5.50;99.90;;;;;;5046351;28;20056;-65
2022/01/24 11:56:25;;;;;;;80.82;33.40;;;5.50;99.90;;;;;;5048918;28;20072;-65
2022/01/24 11:59:12;;;;;;;79.82;33.83;;;5.50;99.90;;;;;;5050961;28;20460;-65
2022/01/24 12:01:39;;;;;;;80.28;35.63;;;5.50;99.90;;;;;;5048925;28;20048;-64
2022/01/24 12:04:05;;;;;;;83.90;34.83;;;5.50;99.90;;;;;;5048024;28;20041;-65
2022/01/24 12:07:09;;;;;;;74.53;33.47;;;5.50;99.90;;;;;;5048576;28;20421;-65
2022/01/24 12:09:35;;;;;;;80.50;34.03;;;5.60;99.90;;;;;;5032674;28;20037;-65
2022/01/24 12:12:35;;;;;;;77.38;34.67;;;5.60;99.90;;;;;;5050756;28;20037;-65
2022/01/24 12:15:02;;;;;;;;;;;5.60;99.90;;;;;;5052035;28;20168;-64
2022/01/24 12:17:49;;;;;;;81.72;34.47;;;5.50;99.90;;;;;;5046074;28;19917;-64
2022/01/24 12:20:30;;;;;;;81.55;34.65;;;5.50;99.90;;;;;;5049558;28;20048;-64
2022/01/24 12:22:56;;;;;;;79.47;33.67;;;5.50;99.90;;;;;;5048668;28;20385;-64
2022/01/24 12:25:48;;;;;;;74.43;32.08;;;5.50;99.90;;;;;;5049993;28;20037;-65
2022/01/24 12:28:26;;;;;;;81.20;33.70;;;5.50;99.90;;;;;;5048378;28;20056;-65
2022/01/24 12:31:11;;;;;;;79.68;34.90;;;5.50;99.90;;;;;;5036977;28;20073;-65
2022/01/24 12:34:26;;;;;;;72.40;32.47;;;5.50;99.90;;;;;;5029229;28;20346;-65
2022/01/24 12:37:04;;;;;;;80.47;34.67;;;5.50;99.90;;;;;;5035957;28;20151;-65
2022/01/24 12:39:46;;;;;;;77.47;33.67;;;5.60;99.90;;;;;;5050073;28;20623;-64
2022/01/24 12:42:32;;;;;;;74.15;33.95;;;5.60;99.90;;;;;;5047510;28;20041;-65
2022/01/24 12:47:43;;;;;;;65.70;29.40;;;5.50;99.90;;;;;;5047843;28;20049;-64
2022/01/24 12:50:10;;;;;;;69.75;30.75;;;5.50;99.90;;;;;;5047372;28;20044;-64
2022/01/24 12:52:38;;;;;;;71.22;31.20;;;5.50;99.90;;;;;;5049185;28;20045;-64
2022/01/24 12:55:04;;;;;;;70.68;32.40;;;5.50;99.90;;;;;;5048477;28;20056;-64
2022/01/24 12:57:32;;;;;;;74.47;33.38;;;5.50;99.90;;;;;;5048591;28;20098;-64
2022/01/24 13:00:01;;;;;;;78.90;34.80;;;5.50;99.90;;;;;;5049045;28;20116;-64
2022/01/24 13:02:30;;;;;;;77.55;34.97;;;5.50;99.90;;;;;;5031843;28;20033;-64
2022/01/24 13:05:13;;;;;;;82.15;35.85;;;5.50;99.90;;;;;;5048095;28;20051;-64
2022/01/24 13:07:40;;;;;;;80.07;34.83;;;5.50;99.90;;;;;;5029698;28;20041;-64
2022/01/24 13:10:09;;;;;;;82.18;36.08;;;5.50;99.90;;;;;;5048532;28;20052;-64
2022/01/24 13:12:36;;;;;;;88.60;36.50;;;5.50;99.90;;;;;;5050805;28;20041;-65
2022/01/24 13:15:06;;;;;;;85.63;36.65;;;5.50;99.90;;;;;;5048294;28;20568;-64
2022/01/24 13:23:08;;;;;;;82.78;36.03;;;5.40;99.90;;;;;;5047159;28;20409;-65
2022/01/24 13:25:37;;;;;;;75.70;34.10;;;5.40;99.90;;;;;;5049929;28;20102;-64
2022/01/24 13:28:11;;;;;;;81.68;36.00;;;5.40;99.90;;;;;;5046426;28;20407;-64
2022/01/24 13:30:40;;;;;;;78.45;34.58;;;5.40;99.90;;;;;;5044803;28;20124;-65
2022/01/24 13:33:12;;;;;;;78.93;36.22;;;5.40;99.90;;;;;;5048291;28;20041;-64
2022/01/24 13:35:46;;;;;;;81.22;34.33;;;5.40;99.90;;;;;;5039516;28;20038;-64
2022/01/24 13:38:15;;;;;;;81.97;34.50;;;5.40;99.90;;;;;;5029660;28;20167;-64
2022/01/24 13:40:54;;;;;;;74.88;33.38;;;5.30;99.90;;;;;;5047694;28;20108;-65
2022/01/24 13:44:04;;;;;;;74.95;33.50;;;5.30;99.90;;;;;;5048789;28;20060;-64
2022/01/24 13:46:33;;;;;;;75.63;34.25;;;5.30;99.90;;;;;;5061070;28;20088;-64
2022/01/24 13:49:13;;;;;;;73.97;32.70;;;5.30;99.90;;;;;;5047943;28;20047;-64
2022/01/24 13:51:42;;;;;;;74.65;34.35;;;5.30;99.90;;;;;;5047005;28;20100;-64
2022/01/24 13:54:11;;;;;;;83.13;34.10;;;5.40;99.90;;;;;;5050904;28;20067;-64
2022/01/24 13:56:41;;;;;;;78.90;33.78;;;5.30;99.90;;;;;;5045177;28;20033;-64
2022/01/24 13:59:10;;;;;;;72.05;31.73;;;5.30;99.90;;;;;;5048271;28;20048;-64
2022/01/24 14:01:57;;;;;;;71.90;32.30;;;5.30;99.90;;;;;;5047907;28;20092;-64
2022/01/24 14:04:27;;;;;;;68.97;30.98;;;5.30;99.90;;;;;;5037249;28;20123;-64
2022/01/24 14:07:13;;;;;;;69.45;30.98;;;5.30;99.90;;;;;;5040683;28;20598;-64
2022/01/24 14:09:41;;;;;;;76.35;33.22;;;5.20;99.90;;;;;;5032978;28;20176;-64
2022/01/24 14:12:13;;;;;;;76.00;31.52;;;5.20;99.90;;;;;;5039774;28;20072;-64
2022/01/24 14:15:05;;;;;;;72.25;33.28;;;5.20;99.90;;;;;;5033087;28;20050;-64
2022/01/24 14:17:37;;;;;;;77.30;32.40;;;5.30;99.90;;;;;;5037648;28;20088;-64
2022/01/24 14:20:08;;;;;;;76.13;33.13;;;5.30;99.90;;;;;;5042753;28;20045;-63
2022/01/24 14:22:37;;;;;;;80.22;34.20;;;5.20;99.90;;;;;;5036050;28;20116;-65
2022/01/24 14:25:03;;;;;;;78.60;34.35;;;5.20;99.90;;;;;;5040693;28;20500;-64
2022/01/24 14:27:45;;;;;;;75.50;32.85;;;5.30;99.90;;;;;;5042027;28;20049;-64
2022/01/24 14:30:26;;;;;;;71.93;30.70;;;5.20;99.90;;;;;;5045975;28;20040;-64
2022/01/24 14:33:20;;;;;;;71.90;31.63;;;5.10;99.90;;;;;;5036861;28;20043;-64
2022/01/24 14:36:13;;;;;;;73.35;31.40;;;5.20;99.90;;;;;;5030114;28;20033;-65
2022/01/24 14:38:45;;;;;;;69.03;32.20;;;5.20;99.90;;;;;;5048224;28;20041;-64
2022/01/24 14:41:17;;;;;;;69.85;31.52;;;5.20;99.90;;;;;;5028798;28;20041;-64
2022/01/24 14:46:38;;;;;;;67.55;29.90;;;5.10;99.90;;;;;;5059270;28;20143;-64
2022/01/24 14:49:06;;;;;;;70.20;32.33;;;5.10;99.90;;;;;;5065871;28;20764;-64